sensor_id;sensor_type;location;lat;lon;timestamp;temperature;humidity
8114;DHT22;4099;52.684;9.918;2022-09-09T00:03:04;13.60;99.90
8114;DHT22;4099;52.684;9.918;2022-09-09T00:08:22;13.50;99.90
8114;DHT22;4099;52.684;9.918;2022-09-09T00:13:36;13.50;99.90
8114;DHT22;4099;52.684;9.918;2022-09-09T00:18:52;13.60;99.90
8114;DHT22;4099;52.684;9.918;2022-09-09T00:23:58;13.50;99.90
8114;DHT22;4099;52.684;9.918;2022-09-09T00:29:10;13.50;99.90
8114;DHT22;4099;52.684;9.918;2022-09-09T00:34:21;13.30;99.90
8114;DHT22;4099;52.684;9.918;2022-09-09T00:39:32;13.20;99.90
8114;DHT22;4099;52.684;9.918;2022-09-09T00:44:56;13.20;99.90
8114;DHT22;4099;52.684;9.918;2022-09-09T00:50:05;13.30;99.90
8114;DHT22;4099;52.684;9.918;2022-09-09T00:55:17;13.30;99.90
8114;DHT22;4099;52.684;9.918;2022-09-09T01:00:32;13.10;99.90
8114;DHT22;4099;52.684;9.918;2022-09-09T01:05:42;13.00;99.90
8114;DHT22;4099;52.684;9.918;2022-09-09T01:10:52;13.00;99.90
8114;DHT22;4099;52.684;9.918;2022-09-09T01:16:07;12.90;99.90
8114;DHT22;4099;52.684;9.918;2022-09-09T01:21:22;12.60;99.90
8114;DHT22;4099;52.684;9.918;2022-09-09T01:26:32;12.70;99.90
8114;DHT22;4099;52.684;9.918;2022-09-09T01:31:54;12.90;99.90
8114;DHT22;4099;52.684;9.918;2022-09-09T01:36:59;12.90;99.90
8114;DHT22;4099;52.684;9.918;2022-09-09T01:42:17;12.90;99.90
8114;DHT22;4099;52.684;9.918;2022-09-09T01:47:20;12.80;99.90
8114;DHT22;4099;52.684;9.918;2022-09-09T01:52:36;12.80;99.90
8114;DHT22;4099;52.684;9.918;2022-09-09T01:57:53;12.90;99.90
8114;DHT22;4099;52.684;9.918;2022-09-09T02:03:06;13.00;99.90
8114;DHT22;4099;52.684;9.918;2022-09-09T02:08:26;13.10;99.90
8114;DHT22;4099;52.684;9.918;2022-09-09T02:13:39;13.00;99.90
8114;DHT22;4099;52.684;9.918;2022-09-09T02:18:49;12.90;99.90
8114;DHT22;4099;52.684;9.918;2022-09-09T02:24:08;12.90;99.90
8114;DHT22;4099;52.684;9.918;2022-09-09T02:29:23;13.10;99.90
8114;DHT22;4099;52.684;9.918;2022-09-09T02:34:32;13.10;99.90
8114;DHT22;4099;52.684;9.918;2022-09-09T02:39:40;13.10;99.90
8114;DHT22;4099;52.684;9.918;2022-09-09T02:44:48;13.10;99.90
8114;DHT22;4099;52.684;9.918;2022-09-09T02:49:58;13.10;99.90
8114;DHT22;4099;52.684;9.918;2022-09-09T02:55:11;13.10;99.90
8114;DHT22;4099;52.684;9.918;2022-09-09T03:00:24;13.10;99.90
8114;DHT22;4099;52.684;9.918;2022-09-09T03:05:31;13.20;99.90
8114;DHT22;4099;52.684;9.918;2022-09-09T03:10:34;13.20;99.90
8114;DHT22;4099;52.684;9.918;2022-09-09T03:15:42;13.20;99.90
8114;DHT22;4099;52.684;9.918;2022-09-09T03:20:51;13.30;99.90
8114;DHT22;4099;52.684;9.918;2022-09-09T03:25:58;13.30;99.90
8114;DHT22;4099;52.684;9.918;2022-09-09T03:31:13;13.30;99.90
8114;DHT22;4099;52.684;9.918;2022-09-09T03:36:19;13.30;99.90
8114;DHT22;4099;52.684;9.918;2022-09-09T03:41:25;13.20;99.90
8114;DHT22;4099;52.684;9.918;2022-09-09T03:46:35;13.20;99.90
8114;DHT22;4099;52.684;9.918;2022-09-09T03:51:40;13.30;99.90
8114;DHT22;4099;52.684;9.918;2022-09-09T03:56:48;13.40;99.90
8114;DHT22;4099;52.684;9.918;2022-09-09T04:01:55;13.50;99.90
8114;DHT22;4099;52.684;9.918;2022-09-09T04:07:02;13.60;99.90
8114;DHT22;4099;52.684;9.918;2022-09-09T04:12:08;13.60;99.90
8114;DHT22;4099;52.684;9.918;2022-09-09T04:17:14;13.70;99.90
8114;DHT22;4099;52.684;9.918;2022-09-09T04:22:21;13.70;99.90
8114;DHT22;4099;52.684;9.918;2022-09-09T04:27:25;13.70;99.90
8114;DHT22;4099;52.684;9.918;2022-09-09T04:32:31;13.60;99.90
8114;DHT22;4099;52.684;9.918;2022-09-09T04:37:34;13.50;99.90
8114;DHT22;4099;52.684;9.918;2022-09-09T04:42:38;13.50;99.90
8114;DHT22;4099;52.684;9.918;2022-09-09T04:47:52;13.50;99.90
8114;DHT22;4099;52.684;9.918;2022-09-09T04:52:59;13.50;99.90
8114;DHT22;4099;52.684;9.918;2022-09-09T04:58:04;13.40;99.90
8114;DHT22;4099;52.684;9.918;2022-09-09T05:03:09;13.40;99.90
8114;DHT22;4099;52.684;9.918;2022-09-09T05:08:14;13.40;99.90
8114;DHT22;4099;52.684;9.918;2022-09-09T05:13:19;13.50;99.90
8114;DHT22;4099;52.684;9.918;2022-09-09T05:18:24;13.70;99.90
8114;DHT22;4099;52.684;9.918;2022-09-09T05:23:30;13.70;99.90
8114;DHT22;4099;52.684;9.918;2022-09-09T05:28:35;13.80;99.90
8114;DHT22;4099;52.684;9.918;2022-09-09T05:33:46;13.90;99.90
8114;DHT22;4099;52.684;9.918;2022-09-09T05:38:51;13.90;99.90
8114;DHT22;4099;52.684;9.918;2022-09-09T05:44:02;14.00;99.90
8114;DHT22;4099;52.684;9.918;2022-09-09T05:49:13;14.00;99.90
8114;DHT22;4099;52.684;9.918;2022-09-09T05:54:21;14.40;99.90
8114;DHT22;4099;52.684;9.918;2022-09-09T05:59:32;14.50;99.90
8114;DHT22;4099;52.684;9.918;2022-09-09T06:04:42;14.60;99.90
8114;DHT22;4099;52.684;9.918;2022-09-09T06:09:46;14.80;99.90
8114;DHT22;4099;52.684;9.918;2022-09-09T06:14:56;14.70;99.90
8114;DHT22;4099;52.684;9.918;2022-09-09T06:20:02;14.90;99.90
8114;DHT22;4099;52.684;9.918;2022-09-09T06:25:09;15.10;99.90
8114;DHT22;4099;52.684;9.918;2022-09-09T06:30:18;15.40;99.90
8114;DHT22;4099;52.684;9.918;2022-09-09T06:35:26;15.70;99.90
8114;DHT22;4099;52.684;9.918;2022-09-09T06:40:31;15.80;99.90
8114;DHT22;4099;52.684;9.918;2022-09-09T06:45:37;15.90;99.90
8114;DHT22;4099;52.684;9.918;2022-09-09T06:50:42;15.90;99.90
8114;DHT22;4099;52.684;9.918;2022-09-09T06:55:52;16.00;99.90
8114;DHT22;4099;52.684;9.918;2022-09-09T07:01:03;16.00;99.90
8114;DHT22;4099;52.684;9.918;2022-09-09T07:06:09;16.00;99.90
8114;DHT22;4099;52.684;9.918;2022-09-09T07:11:23;16.20;99.90
8114;DHT22;4099;52.684;9.918;2022-09-09T07:16:27;16.50;99.90
8114;DHT22;4099;52.684;9.918;2022-09-09T07:21:37;16.60;99.90
8114;DHT22;4099;52.684;9.918;2022-09-09T07:26:42;16.70;99.90
8114;DHT22;4099;52.684;9.918;2022-09-09T07:31:54;16.90;99.90
8114;DHT22;4099;52.684;9.918;2022-09-09T07:37:06;17.10;99.90
8114;DHT22;4099;52.684;9.918;2022-09-09T07:42:18;17.10;99.90
8114;DHT22;4099;52.684;9.918;2022-09-09T07:47:22;17.30;99.90
8114;DHT22;4099;52.684;9.918;2022-09-09T07:52:31;17.50;99.90
8114;DHT22;4099;52.684;9.918;2022-09-09T07:57:50;17.70;99.90
8114;DHT22;4099;52.684;9.918;2022-09-09T08:02:54;17.70;99.90
8114;DHT22;4099;52.684;9.918;2022-09-09T08:08:08;17.90;99.90
8114;DHT22;4099;52.684;9.918;2022-09-09T08:13:14;17.80;99.90
8114;DHT22;4099;52.684;9.918;2022-09-09T08:18:26;17.80;99.90
8114;DHT22;4099;52.684;9.918;2022-09-09T08:23:36;18.30;99.90
8114;DHT22;4099;52.684;9.918;2022-09-09T08:28:41;18.80;99.90
8114;DHT22;4099;52.684;9.918;2022-09-09T08:33:53;18.90;99.90
8114;DHT22;4099;52.684;9.918;2022-09-09T08:39:06;19.20;99.90
8114;DHT22;4099;52.684;9.918;2022-09-09T08:44:25;18.80;99.90
8114;DHT22;4099;52.684;9.918;2022-09-09T08:50:08;19.10;99.90
8114;DHT22;4099;52.684;9.918;2022-09-09T08:55:32;19.60;99.90
8114;DHT22;4099;52.684;9.918;2022-09-09T09:01:00;19.90;99.90
8114;DHT22;4099;52.684;9.918;2022-09-09T09:06:26;19.80;99.90
8114;DHT22;4099;52.684;9.918;2022-09-09T09:11:51;19.80;99.90
8114;DHT22;4099;52.684;9.918;2022-09-09T09:17:13;19.90;99.90
8114;DHT22;4099;52.684;9.918;2022-09-09T09:22:34;20.30;99.90
8114;DHT22;4099;52.684;9.918;2022-09-09T09:27:58;20.50;99.90
8114;DHT22;4099;52.684;9.918;2022-09-09T09:33:11;20.40;99.90
8114;DHT22;4099;52.684;9.918;2022-09-09T09:38:51;20.20;99.90
8114;DHT22;4099;52.684;9.918;2022-09-09T09:43:59;20.40;99.90
8114;DHT22;4099;52.684;9.918;2022-09-09T09:49:09;20.10;99.90
8114;DHT22;4099;52.684;9.918;2022-09-09T09:54:27;19.80;99.90
8114;DHT22;4099;52.684;9.918;2022-09-09T09:59:37;19.40;99.90
8114;DHT22;4099;52.684;9.918;2022-09-09T10:05:14;19.50;99.90
8114;DHT22;4099;52.684;9.918;2022-09-09T10:10:40;19.90;99.90
8114;DHT22;4099;52.684;9.918;2022-09-09T10:16:03;20.20;99.90
8114;DHT22;4099;52.684;9.918;2022-09-09T10:21:20;20.60;99.90
8114;DHT22;4099;52.684;9.918;2022-09-09T10:26:36;20.90;99.90
8114;DHT22;4099;52.684;9.918;2022-09-09T10:31:56;20.80;99.90
8114;DHT22;4099;52.684;9.918;2022-09-09T10:37:18;21.20;97.00
8114;DHT22;4099;52.684;9.918;2022-09-09T10:42:30;21.10;36.60
8114;DHT22;4099;52.684;9.918;2022-09-09T10:47:55;21.60;38.10
8114;DHT22;4099;52.684;9.918;2022-09-09T10:53:14;21.40;1.00
8114;DHT22;4099;52.684;9.918;2022-09-09T10:58:30;21.50;1.00
8114;DHT22;4099;52.684;9.918;2022-09-09T11:03:43;21.50;1.00
8114;DHT22;4099;52.684;9.918;2022-09-09T11:08:52;22.00;1.00
8114;DHT22;4099;52.684;9.918;2022-09-09T11:14:10;22.10;1.00
8114;DHT22;4099;52.684;9.918;2022-09-09T11:19:33;21.60;1.00
8114;DHT22;4099;52.684;9.918;2022-09-09T11:24:41;21.70;1.00
8114;DHT22;4099;52.684;9.918;2022-09-09T11:36:06;21.30;14.80
8114;DHT22;4099;52.684;9.918;2022-09-09T11:41:16;21.10;1.00
8114;DHT22;4099;52.684;9.918;2022-09-09T11:46:36;22.20;1.00
8114;DHT22;4099;52.684;9.918;2022-09-09T11:51:43;22.70;1.00
8114;DHT22;4099;52.684;9.918;2022-09-09T11:56:49;22.50;1.00
8114;DHT22;4099;52.684;9.918;2022-09-09T12:01:55;22.90;1.00
8114;DHT22;4099;52.684;9.918;2022-09-09T12:07:04;22.80;1.00
8114;DHT22;4099;52.684;9.918;2022-09-09T12:12:23;22.30;1.00
8114;DHT22;4099;52.684;9.918;2022-09-09T12:17:30;22.00;1.00
8114;DHT22;4099;52.684;9.918;2022-09-09T12:22:52;21.70;1.00
8114;DHT22;4099;52.684;9.918;2022-09-09T12:28:11;21.50;1.00
8114;DHT22;4099;52.684;9.918;2022-09-09T12:33:33;21.20;1.00
8114;DHT22;4099;52.684;9.918;2022-09-09T12:39:10;20.80;1.00
8114;DHT22;4099;52.684;9.918;2022-09-09T12:44:18;20.60;1.00
8114;DHT22;4099;52.684;9.918;2022-09-09T12:49:30;20.40;1.00
8114;DHT22;4099;52.684;9.918;2022-09-09T12:54:46;20.40;1.00
8114;DHT22;4099;52.684;9.918;2022-09-09T13:00:05;20.30;69.10
8114;DHT22;4099;52.684;9.918;2022-09-09T13:05:15;20.30;99.90
8114;DHT22;4099;52.684;9.918;2022-09-09T13:10:32;20.20;99.90
8114;DHT22;4099;52.684;9.918;2022-09-09T13:15:37;20.30;61.00
8114;DHT22;4099;52.684;9.918;2022-09-09T13:20:46;20.40;54.70
8114;DHT22;4099;52.684;9.918;2022-09-09T13:25:58;20.50;1.00
8114;DHT22;4099;52.684;9.918;2022-09-09T13:31:03;20.80;1.00
8114;DHT22;4099;52.684;9.918;2022-09-09T13:36:12;21.20;1.00
8114;DHT22;4099;52.684;9.918;2022-09-09T13:46:58;21.70;99.90
8114;DHT22;4099;52.684;9.918;2022-09-09T13:52:11;22.00;1.00
8114;DHT22;4099;52.684;9.918;2022-09-09T13:57:18;22.70;1.00
8114;DHT22;4099;52.684;9.918;2022-09-09T14:02:27;23.20;1.00
8114;DHT22;4099;52.684;9.918;2022-09-09T14:07:34;23.40;99.90
8114;DHT22;4099;52.684;9.918;2022-09-09T14:12:47;24.10;1.00
8114;DHT22;4099;52.684;9.918;2022-09-09T14:17:56;24.20;1.00
8114;DHT22;4099;52.684;9.918;2022-09-09T14:23:03;23.80;1.00
8114;DHT22;4099;52.684;9.918;2022-09-09T14:28:11;23.10;1.00
8114;DHT22;4099;52.684;9.918;2022-09-09T14:33:17;22.60;99.90
8114;DHT22;4099;52.684;9.918;2022-09-09T14:38:23;21.90;1.00
8114;DHT22;4099;52.684;9.918;2022-09-09T14:43:34;21.40;1.00
8114;DHT22;4099;52.684;9.918;2022-09-09T14:48:38;21.20;1.00
8114;DHT22;4099;52.684;9.918;2022-09-09T14:53:47;21.00;1.00
8114;DHT22;4099;52.684;9.918;2022-09-09T14:58:53;21.10;1.00
8114;DHT22;4099;52.684;9.918;2022-09-09T15:04:03;21.20;1.00
8114;DHT22;4099;52.684;9.918;2022-09-09T15:09:17;21.30;1.00
8114;DHT22;4099;52.684;9.918;2022-09-09T15:14:22;21.30;1.00
8114;DHT22;4099;52.684;9.918;2022-09-09T15:19:27;21.40;1.00
8114;DHT22;4099;52.684;9.918;2022-09-09T15:24:34;21.60;1.00
8114;DHT22;4099;52.684;9.918;2022-09-09T15:29:40;21.70;1.00
8114;DHT22;4099;52.684;9.918;2022-09-09T15:34:51;21.60;1.00
8114;DHT22;4099;52.684;9.918;2022-09-09T15:39:54;21.60;1.00
8114;DHT22;4099;52.684;9.918;2022-09-09T15:45:06;21.60;1.00
8114;DHT22;4099;52.684;9.918;2022-09-09T15:50:17;21.50;1.00
8114;DHT22;4099;52.684;9.918;2022-09-09T15:55:23;21.70;1.00
8114;DHT22;4099;52.684;9.918;2022-09-09T16:00:29;21.60;1.00
8114;DHT22;4099;52.684;9.918;2022-09-09T16:05:51;21.60;1.00
8114;DHT22;4099;52.684;9.918;2022-09-09T16:11:08;21.30;1.00
8114;DHT22;4099;52.684;9.918;2022-09-09T16:16:14;20.80;1.00
8114;DHT22;4099;52.684;9.918;2022-09-09T16:21:33;20.30;1.00
8114;DHT22;4099;52.684;9.918;2022-09-09T16:26:42;20.00;1.00
8114;DHT22;4099;52.684;9.918;2022-09-09T16:31:52;19.80;50.70
8114;DHT22;4099;52.684;9.918;2022-09-09T16:37:01;19.80;91.50
8114;DHT22;4099;52.684;9.918;2022-09-09T16:42:07;19.70;92.30
8114;DHT22;4099;52.684;9.918;2022-09-09T16:47:16;19.60;86.10
8114;DHT22;4099;52.684;9.918;2022-09-09T16:52:22;19.50;86.70
8114;DHT22;4099;52.684;9.918;2022-09-09T16:57:29;19.30;99.90
8114;DHT22;4099;52.684;9.918;2022-09-09T17:02:45;19.00;99.90
8114;DHT22;4099;52.684;9.918;2022-09-09T17:07:49;18.80;99.90
8114;DHT22;4099;52.684;9.918;2022-09-09T17:13:00;18.50;99.90
8114;DHT22;4099;52.684;9.918;2022-09-09T17:18:12;18.20;99.90
8114;DHT22;4099;52.684;9.918;2022-09-09T17:23:19;17.70;99.90
8114;DHT22;4099;52.684;9.918;2022-09-09T17:28:24;17.20;99.90
8114;DHT22;4099;52.684;9.918;2022-09-09T17:33:44;16.90;99.90
8114;DHT22;4099;52.684;9.918;2022-09-09T17:38:53;16.70;99.90
8114;DHT22;4099;52.684;9.918;2022-09-09T17:44:09;16.60;99.90
8114;DHT22;4099;52.684;9.918;2022-09-09T17:49:17;16.50;99.90
8114;DHT22;4099;52.684;9.918;2022-09-09T17:54:25;16.30;99.90
8114;DHT22;4099;52.684;9.918;2022-09-09T17:59:30;16.20;99.90
8114;DHT22;4099;52.684;9.918;2022-09-09T18:04:38;16.00;99.90
8114;DHT22;4099;52.684;9.918;2022-09-09T18:09:43;15.90;99.90
8114;DHT22;4099;52.684;9.918;2022-09-09T18:14:47;15.80;99.90
8114;DHT22;4099;52.684;9.918;2022-09-09T18:19:53;15.80;99.90
8114;DHT22;4099;52.684;9.918;2022-09-09T18:24:58;15.70;99.90
8114;DHT22;4099;52.684;9.918;2022-09-09T18:30:01;15.80;99.90
8114;DHT22;4099;52.684;9.918;2022-09-09T18:35:10;16.60;99.90
8114;DHT22;4099;52.684;9.918;2022-09-09T18:40:14;16.80;99.90
8114;DHT22;4099;52.684;9.918;2022-09-09T18:45:21;16.50;99.90
8114;DHT22;4099;52.684;9.918;2022-09-09T18:50:42;16.40;99.90
8114;DHT22;4099;52.684;9.918;2022-09-09T18:55:57;16.30;99.90
8114;DHT22;4099;52.684;9.918;2022-09-09T19:01:03;16.40;99.90
8114;DHT22;4099;52.684;9.918;2022-09-09T19:06:10;16.10;99.90
8114;DHT22;4099;52.684;9.918;2022-09-09T19:11:18;16.00;99.90
8114;DHT22;4099;52.684;9.918;2022-09-09T19:16:24;15.70;99.90
8114;DHT22;4099;52.684;9.918;2022-09-09T19:21:33;15.40;99.90
8114;DHT22;4099;52.684;9.918;2022-09-09T19:26:38;15.20;99.90
8114;DHT22;4099;52.684;9.918;2022-09-09T19:31:51;15.20;99.90
8114;DHT22;4099;52.684;9.918;2022-09-09T19:36:57;15.20;99.90
8114;DHT22;4099;52.684;9.918;2022-09-09T19:42:03;15.20;99.90
8114;DHT22;4099;52.684;9.918;2022-09-09T19:47:08;15.20;99.90
8114;DHT22;4099;52.684;9.918;2022-09-09T19:52:25;15.30;99.90
8114;DHT22;4099;52.684;9.918;2022-09-09T19:57:43;15.20;99.90
8114;DHT22;4099;52.684;9.918;2022-09-09T20:02:46;15.30;99.90
8114;DHT22;4099;52.684;9.918;2022-09-09T20:07:55;15.30;99.90
8114;DHT22;4099;52.684;9.918;2022-09-09T20:13:01;15.20;99.90
8114;DHT22;4099;52.684;9.918;2022-09-09T20:18:18;14.90;99.90
8114;DHT22;4099;52.684;9.918;2022-09-09T20:23:28;15.00;99.90
8114;DHT22;4099;52.684;9.918;2022-09-09T20:28:34;15.30;99.90
8114;DHT22;4099;52.684;9.918;2022-09-09T20:33:42;15.40;99.90
8114;DHT22;4099;52.684;9.918;2022-09-09T20:38:48;14.90;99.90
8114;DHT22;4099;52.684;9.918;2022-09-09T20:44:00;14.80;99.90
8114;DHT22;4099;52.684;9.918;2022-09-09T20:49:10;14.80;99.90
8114;DHT22;4099;52.684;9.918;2022-09-09T20:54:18;15.10;99.90
8114;DHT22;4099;52.684;9.918;2022-09-09T20:59:29;15.10;99.90
8114;DHT22;4099;52.684;9.918;2022-09-09T21:04:32;15.30;99.90
8114;DHT22;4099;52.684;9.918;2022-09-09T21:09:37;15.40;99.90
8114;DHT22;4099;52.684;9.918;2022-09-09T21:14:41;15.10;99.90
8114;DHT22;4099;52.684;9.918;2022-09-09T21:19:45;14.90;99.90
8114;DHT22;4099;52.684;9.918;2022-09-09T21:24:49;14.90;99.90
8114;DHT22;4099;52.684;9.918;2022-09-09T21:29:53;15.10;99.90
8114;DHT22;4099;52.684;9.918;2022-09-09T21:34:56;15.10;99.90
8114;DHT22;4099;52.684;9.918;2022-09-09T21:40:01;15.00;99.90
8114;DHT22;4099;52.684;9.918;2022-09-09T21:45:04;14.80;99.90
8114;DHT22;4099;52.684;9.918;2022-09-09T21:50:11;15.00;99.90
8114;DHT22;4099;52.684;9.918;2022-09-09T21:55:18;15.10;99.90
8114;DHT22;4099;52.684;9.918;2022-09-09T22:00:21;15.30;99.90
8114;DHT22;4099;52.684;9.918;2022-09-09T22:05:24;15.40;99.90
8114;DHT22;4099;52.684;9.918;2022-09-09T22:10:31;15.30;99.90
8114;DHT22;4099;52.684;9.918;2022-09-09T22:15:34;15.40;99.90
8114;DHT22;4099;52.684;9.918;2022-09-09T22:20:42;15.20;99.90
8114;DHT22;4099;52.684;9.918;2022-09-09T22:25:53;15.30;99.90
8114;DHT22;4099;52.684;9.918;2022-09-09T22:31:00;15.00;99.90
8114;DHT22;4099;52.684;9.918;2022-09-09T22:36:03;15.10;99.90
8114;DHT22;4099;52.684;9.918;2022-09-09T22:41:08;15.20;99.90
8114;DHT22;4099;52.684;9.918;2022-09-09T22:46:12;15.30;99.90
8114;DHT22;4099;52.684;9.918;2022-09-09T22:51:18;15.20;99.90
8114;DHT22;4099;52.684;9.918;2022-09-09T22:56:22;15.10;99.90
8114;DHT22;4099;52.684;9.918;2022-09-09T23:01:27;15.20;99.90
8114;DHT22;4099;52.684;9.918;2022-09-09T23:06:31;15.30;99.90
8114;DHT22;4099;52.684;9.918;2022-09-09T23:11:38;15.40;99.90
8114;DHT22;4099;52.684;9.918;2022-09-09T23:16:43;15.40;99.90
8114;DHT22;4099;52.684;9.918;2022-09-09T23:21:49;15.30;99.90
8114;DHT22;4099;52.684;9.918;2022-09-09T23:26:57;15.10;99.90
8114;DHT22;4099;52.684;9.918;2022-09-09T23:32:02;15.00;99.90
8114;DHT22;4099;52.684;9.918;2022-09-09T23:37:05;14.80;99.90
8114;DHT22;4099;52.684;9.918;2022-09-09T23:42:14;14.60;99.90
8114;DHT22;4099;52.684;9.918;2022-09-09T23:47:17;14.50;99.90
8114;DHT22;4099;52.684;9.918;2022-09-09T23:52:21;14.20;99.90
8114;DHT22;4099;52.684;9.918;2022-09-09T23:57:27;14.60;99.90
